Time;durP1;ratioP1;P1;durP2;ratioP2;P2;SDS_P1;SDS_P2;PMS_P1;PMS_P2;Temp;Humidity;BMP_temperature;BMP_pressure;BME280_temperature;BME280_humidity;BME280_pressure;Samples;Min_cycle;Max_cycle;Signal;HPM_P1;HPM_P2
2022/12/13 05:03:30;;;;;;;15.70;6.65;;;-5.30;99.90;;;;;;6148781;23;20202;-81
2022/12/13 05:05:56;;;;;;;8.25;6.32;;;-5.20;99.90;;;;;;4958872;28;20809;-62
2022/12/13 05:08:22;;;;;;;8.00;5.93;;;-5.20;99.90;;;;;;4956831;28;20259;-62
2022/12/13 05:10:47;;;;;;;14.97;5.57;;;-5.20;99.90;;;;;;4956819;29;20179;-60
2022/12/13 05:13:13;;;;;;;6.13;5.43;;;-5.20;99.90;;;;;;4957123;29;20209;-61
2022/12/13 05:15:38;;;;;;;4.10;3.80;;;-5.10;99.90;;;;;;4957044;29;20197;-62
2022/12/13 05:18:06;;;;;;;9.70;5.83;;;-5.10;99.90;;;;;;4957089;29;20200;-62
2022/12/13 05:20:33;;;;;;;14.13;6.32;;;-5.20;99.90;;;;;;4939787;28;20546;-62
2022/12/13 05:22:59;;;;;;;7.57;6.85;;;-5.10;99.90;;;;;;4937490;29;20173;-62
2022/12/13 05:25:25;;;;;;;9.90;9.00;;;-5.10;99.90;;;;;;4937692;29;20636;-62
2022/12/13 05:27:51;;;;;;;5.57;4.93;;;-5.10;99.90;;;;;;4937683;29;20170;-61
2022/12/13 05:30:18;;;;;;;13.02;7.00;;;-5.10;99.90;;;;;;4952663;29;20516;-62
2022/12/13 05:32:44;;;;;;;3.75;3.35;;;-5.00;99.90;;;;;;4956714;28;20169;-62
2022/12/13 05:35:14;;;;;;;10.65;7.68;;;-5.10;99.90;;;;;;4955545;28;20204;-63
2022/12/13 05:37:40;;;;;;;11.70;6.93;;;-5.10;99.90;;;;;;4956347;28;20639;-62
2022/12/13 05:40:07;;;;;;;6.80;6.03;;;-5.10;99.90;;;;;;4943162;28;20195;-62
2022/12/13 05:42:32;;;;;;;6.35;5.30;;;-5.10;99.90;;;;;;4937168;29;20177;-62
2022/12/13 05:44:58;;;;;;;6.23;5.20;;;-5.20;99.90;;;;;;4935914;29;20562;-62
2022/12/13 05:47:24;;;;;;;6.63;6.23;;;-5.20;99.90;;;;;;4937354;29;20176;-63
2022/12/13 05:49:50;;;;;;;15.23;6.83;;;-5.20;99.90;;;;;;4947991;29;20255;-63
2022/12/13 05:52:20;;;;;;;6.93;6.30;;;-5.30;99.90;;;;;;4942722;28;20174;-62
2022/12/13 05:54:46;;;;;;;4.57;4.05;;;-5.30;99.90;;;;;;4936857;29;20197;-62
2022/12/13 05:57:12;;;;;;;6.50;3.30;;;-5.30;99.90;;;;;;4936081;29;20193;-62
2022/12/13 05:59:37;;;;;;;8.07;7.30;;;-5.20;99.90;;;;;;4945716;29;20826;-62
2022/12/13 06:02:03;;;;;;;5.40;4.90;;;-5.20;99.90;;;;;;4956144;28;20176;-62
2022/12/13 06:04:29;;;;;;;9.30;6.40;;;-5.20;99.90;;;;;;4955581;28;20207;-62
2022/12/13 06:06:54;;;;;;;10.93;5.13;;;-5.20;99.90;;;;;;4955989;28;20543;-61
2022/12/13 06:09:20;;;;;;;9.17;7.23;;;-5.20;99.90;;;;;;4949376;28;20239;-61
2022/12/13 06:11:47;;;;;;;6.80;6.10;;;-5.20;99.90;;;;;;4937090;29;20169;-63
2022/12/13 06:14:13;;;;;;;7.45;6.75;;;-5.20;99.90;;;;;;4936440;29;20429;-61
2022/12/13 06:16:38;;;;;;;6.75;6.15;;;-5.20;99.90;;;;;;4935569;29;20663;-61
2022/12/13 06:19:04;;;;;;;8.57;5.13;;;-5.20;99.90;;;;;;4944652;29;20176;-66
2022/12/13 06:21:34;;;;;;;5.40;4.90;;;-5.30;99.90;;;;;;4943511;28;20233;-61
2022/12/13 06:23:59;;;;;;;12.80;7.72;;;-5.30;99.90;;;;;;4951318;29;20204;-62
2022/12/13 06:26:26;;;;;;;7.75;5.20;;;-5.30;99.90;;;;;;4955994;28;20296;-60
2022/12/13 06:28:51;;;;;;;8.47;6.20;;;-5.40;99.90;;;;;;4953961;28;20212;-60
2022/12/13 06:31:17;;;;;;;5.23;4.70;;;-5.40;99.90;;;;;;4955808;28;20165;-60
2022/12/13 06:33:43;;;;;;;9.53;6.27;;;-5.40;99.90;;;;;;4955272;28;20666;-61
2022/12/13 06:36:09;;;;;;;7.30;5.30;;;-5.50;99.90;;;;;;4941514;28;20268;-60
2022/12/13 06:38:35;;;;;;;7.25;6.40;;;-5.50;99.90;;;;;;4935341;29;20646;-60
2022/12/13 06:41:09;;;;;;;9.50;5.40;;;-5.50;99.90;;;;;;4940297;29;20262;-60
2022/12/13 06:43:35;;;;;;;6.18;5.53;;;-5.50;99.90;;;;;;4954958;28;20424;-60
2022/12/13 06:46:03;;;;;;;7.57;6.20;;;-5.50;99.90;;;;;;4946715;28;20174;-59
2022/12/13 06:48:29;;;;;;;4.50;4.05;;;-5.50;99.90;;;;;;4943816;29;20421;-61
2022/12/13 06:50:58;;;;;;;6.20;5.63;;;-5.50;99.90;;;;;;4943153;28;20184;-61
2022/12/13 06:53:24;;;;;;;4.45;3.97;;;-5.50;99.90;;;;;;4944086;29;20296;-59
2022/12/13 06:55:50;;;;;;;6.60;5.45;;;-5.50;99.90;;;;;;4937281;28;20185;-60
2022/12/13 06:58:15;;;;;;;14.43;4.63;;;-5.40;99.90;;;;;;4946242;29;20684;-60
2022/12/13 07:00:41;;;;;;;4.27;3.87;;;-5.40;99.90;;;;;;4955275;28;20752;-61
2022/12/13 07:03:08;;;;;;;10.10;6.27;;;-5.50;99.90;;;;;;4946483;29;20431;-61
2022/12/13 07:05:33;;;;;;;6.25;5.22;;;-5.50;99.90;;;;;;4944180;29;20655;-61
2022/12/13 07:07:59;;;;;;;5.00;4.50;;;-5.50;99.90;;;;;;4955167;28;20408;-61
2022/12/13 07:10:24;;;;;;;7.93;7.23;;;-5.40;99.90;;;;;;4954839;28;20244;-61
2022/12/13 07:12:50;;;;;;;9.67;3.80;;;-5.40;99.90;;;;;;4954746;29;20177;-61
2022/12/13 07:15:16;;;;;;;4.67;3.97;;;-5.30;99.90;;;;;;4953643;29;20219;-62
2022/12/13 07:17:41;;;;;;;7.43;3.47;;;-5.20;99.90;;;;;;4953445;28;20184;-61
2022/12/13 07:20:08;;;;;;;9.40;6.30;;;-5.20;99.90;;;;;;4955085;28;20277;-61
2022/12/13 07:22:33;;;;;;;9.65;5.20;;;-5.20;99.90;;;;;;4942992;29;20176;-61
2022/12/13 07:24:59;;;;;;;6.73;5.50;;;-5.10;99.90;;;;;;4939177;29;20205;-60
2022/12/13 07:27:24;;;;;;;8.57;4.60;;;-5.10;99.90;;;;;;4954284;28;20194;-60
2022/12/13 07:29:50;;;;;;;7.47;6.13;;;-5.10;99.90;;;;;;4954296;29;20241;-61
2022/12/13 07:32:15;;;;;;;7.30;6.60;;;-5.00;99.90;;;;;;4954864;28;20173;-61
2022/12/13 07:34:41;;;;;;;9.90;5.70;;;-4.90;99.90;;;;;;4954682;28;20251;-60
2022/12/13 07:37:08;;;;;;;13.00;8.43;;;-4.80;99.90;;;;;;4953730;29;20535;-60
2022/12/13 07:39:34;;;;;;;9.10;4.35;;;-4.70;99.90;;;;;;4954769;28;20181;-60
2022/12/13 07:41:59;;;;;;;8.10;6.43;;;-4.70;99.90;;;;;;4955036;29;20520;-61
2022/12/13 07:44:26;;;;;;;6.83;6.13;;;-4.60;99.90;;;;;;4954298;29;20671;-60
2022/12/13 07:46:51;;;;;;;5.90;5.32;;;-4.60;99.90;;;;;;4955085;28;20184;-61
2022/12/13 07:49:17;;;;;;;4.33;3.53;;;-4.60;99.90;;;;;;4954323;29;20704;-61
2022/12/13 07:51:42;;;;;;;7.37;5.30;;;-4.50;99.90;;;;;;4955057;28;20532;-61
2022/12/13 07:54:08;;;;;;;8.80;6.00;;;-4.50;99.90;;;;;;4954511;28;20718;-60
2022/12/13 07:56:35;;;;;;;8.37;6.37;;;-4.40;99.90;;;;;;4954943;28;20177;-61
2022/12/13 07:59:01;;;;;;;6.93;6.20;;;-4.30;99.90;;;;;;4943068;28;20199;-60
2022/12/13 08:01:27;;;;;;;9.02;6.60;;;-4.20;99.90;;;;;;4952009;28;20180;-62
2022/12/13 08:03:53;;;;;;;7.63;6.82;;;-4.10;99.90;;;;;;4957746;28;20705;-60
2022/12/13 08:06:19;;;;;;;9.00;5.80;;;-4.00;99.90;;;;;;4957923;28;20192;-61
2022/12/13 08:08:45;;;;;;;5.80;5.33;;;-3.90;99.90;;;;;;4958342;28;20176;-60
2022/12/13 08:11:14;;;;;;;12.15;7.80;;;-3.90;99.90;;;;;;4957398;28;20643;-61
2022/12/13 08:13:40;;;;;;;11.50;7.97;;;-3.80;99.90;;;;;;4940489;29;20193;-61
2022/12/13 08:16:09;;;;;;;10.05;7.40;;;-3.60;99.90;;;;;;4939029;29;20178;-60
2022/12/13 08:18:34;;;;;;;10.38;5.82;;;-3.40;99.90;;;;;;4938900;29;20525;-60
2022/12/13 08:21:02;;;;;;;6.70;6.07;;;-3.20;99.90;;;;;;4938954;29;20182;-61
2022/12/13 08:23:29;;;;;;;9.10;7.55;;;-3.10;99.90;;;;;;4956079;29;20276;-60
2022/12/13 08:25:56;;;;;;;8.52;7.25;;;-3.00;99.90;;;;;;4957323;28;20182;-59
2022/12/13 08:28:22;;;;;;;15.50;7.35;;;-2.80;99.90;;;;;;4957901;28;20671;-61
2022/12/13 08:30:49;;;;;;;13.75;8.45;;;-2.40;99.90;;;;;;4955905;29;20272;-60
2022/12/13 08:33:15;;;;;;;7.90;6.57;;;-2.00;99.90;;;;;;4957405;28;20184;-60
2022/12/13 08:35:40;;;;;;;10.50;6.70;;;-1.60;99.90;;;;;;4957936;28;20200;-61
2022/12/13 08:38:06;;;;;;;10.97;7.83;;;-1.40;99.90;;;;;;4966900;28;20511;-60
2022/12/13 08:40:32;;;;;;;9.60;8.00;;;-1.20;99.90;;;;;;4949290;29;20177;-61
2022/12/13 08:42:57;;;;;;;13.83;8.20;;;-1.20;99.90;;;;;;4937915;29;20190;-60
2022/12/13 08:45:24;;;;;;;8.60;5.30;;;-1.10;99.90;;;;;;4938322;29;20459;-65
2022/12/13 08:47:50;;;;;;;14.95;7.47;;;-1.10;99.90;;;;;;4938529;29;20166;-61
2022/12/13 08:50:15;;;;;;;13.73;8.50;;;-1.10;99.90;;;;;;4940595;29;20182;-60
2022/12/13 08:52:43;;;;;;;12.43;6.57;;;-1.00;99.90;;;;;;4952222;28;20184;-61
2022/12/13 08:55:13;;;;;;;11.25;6.35;;;-0.70;99.90;;;;;;4938567;29;20232;-60
2022/12/13 08:57:40;;;;;;;9.55;7.00;;;-0.50;99.90;;;;;;4938875;29;20320;-61
2022/12/13 09:00:10;;;;;;;13.00;6.80;;;-0.40;99.90;;;;;;4938271;29;20200;-61
2022/12/13 09:02:36;;;;;;;8.60;5.68;;;-0.20;99.90;;;;;;4955461;29;20177;-61
2022/12/13 09:05:02;;;;;;;10.80;6.70;;;0.10;99.90;;;;;;4956950;28;20234;-62
2022/12/13 09:07:28;;;;;;;12.65;7.65;;;0.50;99.90;;;;;;4955690;29;20428;-61
2022/12/13 09:09:54;;;;;;;11.52;8.75;;;0.70;99.90;;;;;;4957507;28;20172;-61
2022/12/13 09:12:19;;;;;;;12.10;6.67;;;1.00;99.90;;;;;;4954834;28;20185;-61
2022/12/13 09:14:46;;;;;;;10.70;7.70;;;1.20;99.90;;;;;;4956175;28;20192;-61
2022/12/13 09:17:13;;;;;;;10.52;7.90;;;1.20;99.90;;;;;;4971942;28;20188;-60
2022/12/13 09:19:39;;;;;;;9.70;6.65;;;1.00;99.50;;;;;;4955916;28;20254;-60
2022/12/13 09:22:05;;;;;;;10.10;7.35;;;0.90;99.60;;;;;;4957179;28;20276;-60
2022/12/13 09:24:31;;;;;;;10.37;7.57;;;0.90;99.90;;;;;;4956383;28;20366;-60
2022/12/13 09:26:57;;;;;;;10.53;6.90;;;0.90;99.90;;;;;;4956833;29;20178;-60
2022/12/13 09:29:22;;;;;;;8.40;6.10;;;1.00;99.90;;;;;;4955221;29;20420;-59
2022/12/13 09:31:48;;;;;;;7.97;6.07;;;1.00;99.50;;;;;;4956378;29;20169;-60
2022/12/13 09:34:14;;;;;;;9.80;7.23;;;1.20;99.90;;;;;;4956343;28;20193;-60
2022/12/13 09:36:40;;;;;;;11.80;6.40;;;1.40;99.30;;;;;;4956823;28;20176;-61
2022/12/13 09:39:06;;;;;;;11.32;7.18;;;1.50;98.40;;;;;;4940115;28;20189;-61
2022/12/13 09:41:39;;;;;;;11.47;6.50;;;1.70;97.90;;;;;;4936487;29;20173;-61
2022/12/13 09:44:13;;;;;;;11.98;7.13;;;1.80;97.60;;;;;;4937063;29;20201;-61
2022/12/13 09:46:42;;;;;;;8.05;6.13;;;1.80;96.80;;;;;;4941839;29;20184;-60
2022/12/13 09:49:25;;;;;;;8.70;6.20;;;1.80;96.40;;;;;;4956418;28;20181;-61
2022/12/13 09:51:55;;;;;;;9.57;7.80;;;1.70;96.60;;;;;;4956626;28;20293;-61
2022/12/13 09:54:23;;;;;;;9.02;6.88;;;1.70;96.40;;;;;;4954169;28;20203;-59
2022/12/13 09:56:50;;;;;;;8.90;5.63;;;1.60;96.50;;;;;;4937329;29;20185;-59
2022/12/13 09:59:18;;;;;;;9.45;7.32;;;1.50;96.30;;;;;;4937108;29;20650;-61
2022/12/13 10:01:44;;;;;;;11.52;5.05;;;1.50;96.40;;;;;;4936610;29;20171;-61
2022/12/13 10:04:13;;;;;;;8.70;6.10;;;1.50;96.70;;;;;;4936590;29;20273;-60
2022/12/13 10:06:39;;;;;;;7.35;5.53;;;1.70;96.70;;;;;;4954994;29;20196;-60
2022/12/13 10:09:09;;;;;;;8.80;5.77;;;1.80;96.50;;;;;;4956067;28;20556;-60
2022/12/13 10:11:34;;;;;;;10.82;5.43;;;2.00;96.40;;;;;;4955941;28;20749;-61
2022/12/13 10:14:10;;;;;;;91.97;45.20;;;2.20;96.00;;;;;;4955521;28;20197;-61
2022/12/13 10:16:35;;;;;;;9.20;6.55;;;2.20;95.40;;;;;;4954916;28;20532;-60
2022/12/13 10:19:12;;;;;;;10.07;6.30;;;2.20;95.30;;;;;;4955929;28;20180;-60
2022/12/13 10:21:41;;;;;;;13.88;7.13;;;2.30;95.80;;;;;;4955988;28;20177;-60
2022/12/13 10:24:29;;;;;;;10.32;6.63;;;2.40;95.50;;;;;;4954259;28;20234;-62
2022/12/13 10:27:13;;;;;;;9.25;6.15;;;2.30;94.80;;;;;;4938682;28;20207;-60
2022/12/13 10:29:58;;;;;;;5.82;4.57;;;2.30;94.90;;;;;;4936570;29;20185;-60
2022/12/13 10:32:24;;;;;;;6.25;5.50;;;2.10;94.80;;;;;;4953153;29;20177;-61
2022/12/13 10:34:50;;;;;;;7.80;5.17;;;2.00;95.00;;;;;;4953671;28;20194;-60
2022/12/13 10:37:25;;;;;;;11.07;6.47;;;1.90;95.10;;;;;;4956019;28;20457;-62
2022/12/13 10:39:51;;;;;;;8.38;4.93;;;1.80;95.20;;;;;;4955566;29;20416;-60
2022/12/13 10:42:19;;;;;;;9.13;7.43;;;1.70;95.20;;;;;;4955667;28;20265;-60
2022/12/13 10:44:45;;;;;;;10.82;6.10;;;1.60;95.30;;;;;;4942657;29;20571;-62
2022/12/13 10:47:16;;;;;;;12.57;7.33;;;1.60;96.00;;;;;;4950511;29;20232;-61
2022/12/13 10:49:53;;;;;;;9.38;5.90;;;1.60;96.10;;;;;;4954600;28;20428;-61
2022/12/13 10:52:31;;;;;;;9.93;5.90;;;1.60;96.20;;;;;;4955352;28;20176;-61
2022/12/13 10:55:03;;;;;;;7.10;4.80;;;1.50;96.60;;;;;;4955175;28;20616;-63
2022/12/13 10:57:30;;;;;;;7.95;6.05;;;1.50;96.70;;;;;;4955584;28;20217;-63
2022/12/13 10:59:55;;;;;;;8.68;7.18;;;1.40;96.70;;;;;;4954415;28;20213;-62
2022/12/13 11:02:21;;;;;;;7.60;5.17;;;1.30;96.90;;;;;;4955524;28;20208;-63
2022/12/13 11:04:46;;;;;;;7.40;6.07;;;1.30;97.30;;;;;;4943725;28;20345;-63
2022/12/13 11:07:32;;;;;;;9.67;6.10;;;1.10;97.00;;;;;;4936143;29;20173;-62
2022/12/13 11:10:15;;;;;;;20.77;15.90;;;1.10;97.00;;;;;;4945848;29;20226;-62
2022/12/13 11:12:41;;;;;;;3.28;2.28;;;0.90;97.40;;;;;;4954877;28;20535;-62
2022/12/13 11:15:14;;;;;;;7.77;5.57;;;0.80;97.60;;;;;;4954251;28;20209;-61
2022/12/13 11:17:51;;;;;;;10.48;5.68;;;0.70;98.00;;;;;;4955343;28;20415;-62
2022/12/13 11:20:24;;;;;;;13.48;8.40;;;0.70;98.60;;;;;;4955113;28;20662;-61
2022/12/13 11:23:02;;;;;;;13.10;6.05;;;0.70;98.30;;;;;;4950772;28;20634;-63
2022/12/13 11:25:42;;;;;;;8.98;7.00;;;0.70;98.40;;;;;;4974207;28;20301;-63
2022/12/13 11:28:15;;;;;;;7.40;6.50;;;0.80;98.40;;;;;;4960197;28;20187;-62
2022/12/13 11:30:56;;;;;;;8.10;6.82;;;0.70;98.60;;;;;;4955247;28;20177;-64
2022/12/13 11:33:50;;;;;;;10.30;5.50;;;0.70;99.20;;;;;;4954534;28;20177;-62
2022/12/13 11:36:39;;;;;;;8.30;6.35;;;0.80;99.50;;;;;;4955730;28;20259;-62
2022/12/13 11:39:20;;;;;;;10.77;5.97;;;0.80;99.40;;;;;;4957694;29;20294;-60
2022/12/13 11:42:21;;;;;;;13.57;7.03;;;0.80;99.50;;;;;;4959176;28;20177;-61
2022/12/13 11:45:19;;;;;;;8.38;5.32;;;0.70;99.70;;;;;;4958307;29;20227;-60
2022/12/13 11:47:53;;;;;;;6.80;5.60;;;0.70;99.40;;;;;;4958397;28;20200;-60
2022/12/13 11:50:29;;;;;;;7.40;5.68;;;0.70;99.80;;;;;;4958478;28;20569;-60
2022/12/13 11:52:59;;;;;;;8.98;4.95;;;0.70;99.80;;;;;;4957966;28;20182;-61
2022/12/13 11:55:36;;;;;;;8.20;6.45;;;0.70;99.50;;;;;;4958375;28;20250;-61
2022/12/13 11:58:24;;;;;;;12.75;7.15;;;0.70;99.20;;;;;;4958214;28;20183;-60
2022/12/13 12:00:58;;;;;;;10.98;6.13;;;0.60;99.40;;;;;;4958425;28;20181;-60
2022/12/13 12:03:47;;;;;;;8.40;5.25;;;0.50;99.70;;;;;;4958008;28;20185;-61
2022/12/13 12:06:20;;;;;;;8.88;7.10;;;0.60;99.80;;;;;;4957805;28;20189;-61
2022/12/13 12:08:56;;;;;;;10.82;6.53;;;0.60;99.90;;;;;;4958315;28;20197;-61
2022/12/13 12:11:36;;;;;;;8.55;7.20;;;0.70;99.90;;;;;;4958493;28;20172;-61
2022/12/13 12:14:30;;;;;;;8.52;5.13;;;0.70;99.60;;;;;;4956851;29;20218;-60
2022/12/13 12:16:59;;;;;;;9.05;4.90;;;0.70;99.80;;;;;;4958416;29;20187;-60
2022/12/13 12:19:33;;;;;;;11.52;5.53;;;0.70;99.80;;;;;;4955347;28;20181;-61
2022/12/13 12:22:17;;;;;;;10.45;6.70;;;0.80;99.90;;;;;;4938951;29;20234;-61
2022/12/13 12:24:54;;;;;;;9.25;6.80;;;0.90;99.90;;;;;;4938444;29;20215;-60
2022/12/13 12:27:36;;;;;;;12.75;6.05;;;0.90;99.70;;;;;;4938907;29;20185;-61
2022/12/13 12:30:23;;;;;;;9.13;5.53;;;0.90;99.80;;;;;;4939017;29;20225;-60
2022/12/13 12:33:07;;;;;;;7.35;6.38;;;1.00;99.90;;;;;;4938866;29;20177;-60
2022/12/13 12:36:26;;;;;;;8.23;5.78;;;1.00;99.90;;;;;;4952155;29;20647;-60
2022/12/13 12:39:25;;;;;;;9.35;6.10;;;0.90;99.90;;;;;;4917739;29;20178;-61
2022/12/13 12:42:04;;;;;;;7.07;5.25;;;1.00;99.90;;;;;;4957994;28;20180;-61
2022/12/13 12:44:36;;;;;;;8.65;4.80;;;1.00;99.90;;;;;;4957422;28;20208;-60
2022/12/13 12:47:13;;;;;;;4.95;4.30;;;1.00;99.20;;;;;;4957582;28;20169;-60
2022/12/13 12:49:56;;;;;;;5.35;4.18;;;1.00;98.00;;;;;;4948684;28;20181;-59
2022/12/13 12:52:47;;;;;;;6.57;5.53;;;1.00;97.30;;;;;;4938500;29;20231;-60
2022/12/13 12:55:15;;;;;;;5.30;4.63;;;1.00;97.20;;;;;;4955885;29;20204;-60
2022/12/13 12:58:00;;;;;;;9.57;5.32;;;0.90;96.90;;;;;;4957680;28;20590;-60
2022/12/13 13:00:29;;;;;;;6.90;4.05;;;0.90;96.80;;;;;;4957691;28;20177;-60
2022/12/13 13:03:09;;;;;;;5.13;4.25;;;0.80;96.80;;;;;;4957053;28;20208;-61
2022/12/13 13:05:52;;;;;;;5.38;3.30;;;0.80;96.70;;;;;;4956984;28;20299;-60
2022/12/13 13:08:39;;;;;;;8.43;4.90;;;0.70;97.10;;;;;;4956955;28;20180;-60
2022/12/13 13:11:06;;;;;;;8.27;4.68;;;0.70;97.10;;;;;;4951112;28;20502;-60
2022/12/13 13:13:49;;;;;;;7.43;3.83;;;0.70;97.40;;;;;;4946824;29;20322;-63
2022/12/13 13:16:32;;;;;;;9.55;5.35;;;0.70;97.40;;;;;;4957422;28;20164;-61
2022/12/13 13:19:04;;;;;;;8.63;4.28;;;0.80;97.60;;;;;;4957238;28;20185;-60
2022/12/13 13:21:30;;;;;;;4.07;3.60;;;0.80;97.50;;;;;;4956620;28;20231;-61
2022/12/13 13:24:10;;;;;;;9.93;5.13;;;0.90;97.40;;;;;;4956526;28;20232;-61
2022/12/13 13:26:47;;;;;;;7.35;5.20;;;1.00;97.50;;;;;;4944751;28;20181;-61
2022/12/13 13:29:22;;;;;;;6.32;4.10;;;1.00;97.50;;;;;;4937688;29;20181;-60
2022/12/13 13:31:59;;;;;;;7.45;4.80;;;1.00;97.60;;;;;;4936859;29;20260;-61
2022/12/13 13:34:27;;;;;;;6.20;4.50;;;1.10;97.50;;;;;;4936784;29;20193;-60
2022/12/13 13:36:55;;;;;;;9.10;4.03;;;1.10;97.30;;;;;;4937757;29;20178;-60
2022/12/13 13:39:27;;;;;;;5.00;4.13;;;1.20;97.10;;;;;;4937860;29;20182;-61
2022/12/13 13:41:54;;;;;;;5.13;4.32;;;1.20;96.90;;;;;;4953805;29;20181;-60
2022/12/13 13:44:51;;;;;;;7.55;4.38;;;1.10;96.80;;;;;;4956148;28;20204;-60
2022/12/13 13:47:21;;;;;;;4.95;3.70;;;1.10;96.50;;;;;;4956676;28;20173;-61
2022/12/13 13:50:11;;;;;;;6.32;3.22;;;1.00;96.40;;;;;;4956736;28;20527;-60
2022/12/13 13:53:11;;;;;;;5.82;3.60;;;1.00;95.90;;;;;;4956390;28;20177;-61
2022/12/13 13:55:46;;;;;;;14.68;4.13;;;1.00;95.50;;;;;;4956029;29;20200;-60
2022/12/13 13:58:39;;;;;;;6.57;4.15;;;0.90;95.70;;;;;;4956547;28;20212;-61
2022/12/13 14:01:29;;;;;;;6.68;3.70;;;0.90;95.60;;;;;;4956404;28;20272;-61
2022/12/13 14:04:33;;;;;;;6.25;4.18;;;0.80;95.20;;;;;;4955649;29;20203;-60
2022/12/13 14:07:19;;;;;;;5.68;4.75;;;0.80;95.40;;;;;;4956158;29;20218;-61
2022/12/13 14:09:48;;;;;;;4.13;3.72;;;0.80;95.40;;;;;;4955853;28;20167;-59
2022/12/13 14:12:41;;;;;;;7.15;4.13;;;0.80;95.70;;;;;;4956368;28;20591;-61
2022/12/13 14:15:24;;;;;;;7.70;3.17;;;0.80;95.60;;;;;;4956262;29;20197;-61
2022/12/13 14:17:55;;;;;;;5.70;4.07;;;0.80;95.50;;;;;;4955900;28;20581;-61
2022/12/13 14:20:42;;;;;;;5.65;4.05;;;0.80;95.20;;;;;;4956119;28;20184;-60
2022/12/13 14:23:34;;;;;;;6.60;4.22;;;0.80;95.20;;;;;;4955767;28;20184;-60
2022/12/13 14:26:12;;;;;;;6.38;3.92;;;0.80;94.60;;;;;;4939138;28;20209;-60
2022/12/13 14:28:45;;;;;;;4.80;3.42;;;0.80;94.80;;;;;;4934615;29;20196;-61
2022/12/13 14:31:24;;;;;;;8.00;2.95;;;0.80;94.80;;;;;;4934704;29;20177;-59
2022/12/13 14:33:52;;;;;;;4.82;3.78;;;0.70;95.20;;;;;;4934104;29;20547;-61
2022/12/13 14:36:26;;;;;;;9.88;5.85;;;0.70;95.30;;;;;;4934394;29;20181;-61
2022/12/13 14:39:13;;;;;;;6.00;3.50;;;0.70;95.60;;;;;;4934422;29;20177;-60
2022/12/13 14:41:46;;;;;;;4.22;3.92;;;0.60;95.60;;;;;;4936111;29;20542;-61
2022/12/13 14:44:14;;;;;;;5.18;3.22;;;0.60;95.70;;;;;;4936072;29;20228;-61
2022/12/13 14:47:13;;;;;;;5.55;4.45;;;0.60;95.70;;;;;;4935262;29;20174;-60
2022/12/13 14:49:41;;;;;;;6.15;4.03;;;0.50;95.90;;;;;;4924918;29;20191;-60
2022/12/13 14:52:41;;;;;;;5.57;3.47;;;0.50;96.00;;;;;;4936414;29;20181;-59
2022/12/13 14:55:20;;;;;;;7.38;4.18;;;0.50;96.10;;;;;;4924595;29;20311;-59
2022/12/13 14:57:52;;;;;;;6.22;3.85;;;0.40;96.10;;;;;;4936527;29;20253;-61
2022/12/13 15:00:34;;;;;;;6.25;4.20;;;0.40;96.10;;;;;;4936295;29;20181;-61
2022/12/13 15:03:02;;;;;;;5.10;3.92;;;0.40;96.30;;;;;;4936031;29;20177;-61
2022/12/13 15:05:38;;;;;;;4.85;3.55;;;0.40;96.60;;;;;;4935893;29;20683;-60
2022/12/13 15:08:08;;;;;;;3.90;3.15;;;0.40;96.70;;;;;;4936356;29;20181;-61
2022/12/13 15:10:41;;;;;;;4.40;3.10;;;0.30;96.70;;;;;;4953903;28;20275;-60
2022/12/13 15:13:39;;;;;;;4.57;3.83;;;0.40;96.60;;;;;;4953720;29;20512;-60
2022/12/13 15:16:24;;;;;;;8.48;3.60;;;0.30;96.40;;;;;;4955254;28;20176;-60
2022/12/13 15:19:04;;;;;;;11.15;2.88;;;0.30;95.90;;;;;;4955102;28;20187;-60
2022/12/13 15:21:29;;;;;;;4.55;3.15;;;0.20;95.80;;;;;;4955443;28;20263;-60
2022/12/13 15:23:57;;;;;;;7.67;4.10;;;0.20;96.10;;;;;;4942094;28;20619;-60
2022/12/13 15:26:25;;;;;;;8.95;5.05;;;0.10;96.10;;;;;;4936257;29;20187;-59
2022/12/13 15:28:59;;;;;;;4.35;3.72;;;0.10;96.30;;;;;;4936149;29;20177;-60
2022/12/13 15:31:25;;;;;;;3.90;3.60;;;0.10;96.10;;;;;;4935934;29;20235;-60
2022/12/13 15:33:51;;;;;;;4.47;2.80;;;0.10;95.90;;;;;;4935532;29;20196;-59
2022/12/13 15:36:21;;;;;;;8.83;4.93;;;0.00;95.90;;;;;;4936121;29;20184;-60
2022/12/13 15:38:53;;;;;;;8.27;4.70;;;-0.10;95.80;;;;;;4950847;29;20654;-60
2022/12/13 15:41:27;;;;;;;5.00;3.67;;;-0.10;95.90;;;;;;4935895;29;20547;-60
2022/12/13 15:43:58;;;;;;;4.97;4.25;;;-0.10;96.10;;;;;;4935533;29;20193;-60
2022/12/13 15:46:29;;;;;;;5.15;4.20;;;-0.20;96.20;;;;;;4935902;29;20173;-62
2022/12/13 15:48:58;;;;;;;7.80;3.75;;;-0.20;96.30;;;;;;4936071;29;20174;-60
2022/12/13 15:51:24;;;;;;;6.10;4.10;;;-0.30;96.60;;;;;;4951917;29;20184;-60
2022/12/13 15:54:08;;;;;;;6.55;3.95;;;-0.30;96.70;;;;;;4954342;28;20189;-59
2022/12/13 15:56:58;;;;;;;3.55;2.70;;;-0.30;96.90;;;;;;4955062;29;20179;-60
2022/12/13 15:59:27;;;;;;;4.00;3.70;;;-0.30;96.90;;;;;;4947619;28;20188;-61
2022/12/13 16:01:53;;;;;;;13.05;4.35;;;-0.30;97.10;;;;;;4954964;28;20169;-60
2022/12/13 16:04:24;;;;;;;6.15;3.95;;;-0.30;97.20;;;;;;4952327;28;20295;-60
2022/12/13 16:06:51;;;;;;;6.72;4.10;;;-0.40;97.20;;;;;;4935297;29;20218;-61
2022/12/13 16:09:19;;;;;;;6.18;5.60;;;-0.40;97.40;;;;;;4935252;29;20179;-61
2022/12/13 16:11:54;;;;;;;6.13;4.00;;;-0.40;97.60;;;;;;4934542;29;20535;-61
2022/12/13 16:14:39;;;;;;;6.60;3.85;;;-0.50;97.60;;;;;;4934995;29;20263;-61
2022/12/13 16:17:17;;;;;;;14.02;5.63;;;-0.50;97.80;;;;;;4935774;29;20216;-61
2022/12/13 16:19:42;;;;;;;7.32;3.55;;;-0.50;98.00;;;;;;4942812;29;20179;-60
2022/12/13 16:22:08;;;;;;;7.20;4.20;;;-0.60;98.20;;;;;;4955286;28;20185;-60
2022/12/13 16:24:33;;;;;;;5.07;3.80;;;-0.60;98.50;;;;;;4957714;28;20336;-60
2022/12/13 16:26:59;;;;;;;7.63;4.17;;;-0.60;98.50;;;;;;4958149;28;20175;-60
2022/12/13 16:29:25;;;;;;;6.13;3.70;;;-0.60;98.80;;;;;;4958067;28;20173;-59
2022/12/13 16:31:50;;;;;;;5.90;3.77;;;-0.60;98.80;;;;;;4958001;28;20644;-59
2022/12/13 16:34:16;;;;;;;8.03;4.60;;;-0.60;98.80;;;;;;4951900;28;20200;-58
2022/12/13 16:36:44;;;;;;;9.43;6.67;;;-0.60;99.00;;;;;;4938418;29;20628;-61
2022/12/13 16:39:10;;;;;;;4.03;3.72;;;-0.70;99.20;;;;;;4938309;29;20174;-60
2022/12/13 16:41:42;;;;;;;5.50;3.95;;;-0.70;99.30;;;;;;4938782;29;20571;-59
2022/12/13 16:44:19;;;;;;;5.00;3.80;;;-0.70;99.50;;;;;;4938336;29;20213;-60
2022/12/13 16:46:44;;;;;;;8.35;4.07;;;-0.70;99.60;;;;;;4938843;29;20182;-62
2022/12/13 16:49:22;;;;;;;9.40;5.07;;;-0.80;99.80;;;;;;4945123;29;20175;-61
2022/12/13 16:51:48;;;;;;;7.90;5.20;;;-0.80;99.90;;;;;;4957721;28;20205;-60
2022/12/13 16:54:14;;;;;;;11.02;6.25;;;-0.90;99.90;;;;;;4957490;28;20253;-60
2022/12/13 16:56:39;;;;;;;9.33;5.87;;;-0.90;99.90;;;;;;4957774;28;20212;-59
2022/12/13 16:59:05;;;;;;;6.33;5.73;;;-1.00;99.90;;;;;;4957513;28;20190;-61
2022/12/13 17:01:31;;;;;;;4.97;4.33;;;-0.90;99.90;;;;;;4955686;28;20227;-60
2022/12/13 17:03:57;;;;;;;5.00;4.57;;;-1.00;99.90;;;;;;4936505;29;20221;-60
2022/12/13 17:06:23;;;;;;;10.43;5.27;;;-1.00;99.90;;;;;;4938117;29;20614;-60
2022/12/13 17:08:49;;;;;;;7.70;5.85;;;-1.00;99.90;;;;;;4938171;29;20643;-60
2022/12/13 17:11:15;;;;;;;6.00;3.70;;;-1.10;99.90;;;;;;4937980;29;20178;-62
2022/12/13 17:13:43;;;;;;;5.30;4.50;;;-1.10;99.90;;;;;;4937570;29;20197;-61
2022/12/13 17:16:10;;;;;;;7.35;5.47;;;-1.10;99.90;;;;;;4938133;29;20188;-62
2022/12/13 17:18:35;;;;;;;12.98;5.85;;;-1.10;99.90;;;;;;4938020;29;20251;-60
2022/12/13 17:21:08;;;;;;;7.13;4.83;;;-1.20;99.90;;;;;;4937922;29;20274;-64
2022/12/13 17:23:34;;;;;;;7.78;5.75;;;-1.20;99.90;;;;;;4937582;29;20642;-61
2022/12/13 17:26:08;;;;;;;5.67;5.00;;;-1.30;99.90;;;;;;4937669;29;20294;-61
2022/12/13 17:28:34;;;;;;;8.35;4.78;;;-1.30;99.90;;;;;;4938018;29;20205;-63
2022/12/13 17:31:12;;;;;;;4.37;3.97;;;-1.30;99.90;;;;;;4942572;29;20171;-61
2022/12/13 17:33:38;;;;;;;8.60;5.13;;;-1.30;99.90;;;;;;4955600;28;20521;-62
2022/12/13 17:36:05;;;;;;;9.90;5.35;;;-1.30;99.90;;;;;;4956640;28;20179;-61
2022/12/13 17:38:31;;;;;;;9.60;6.47;;;-1.30;99.90;;;;;;4955566;28;20684;-61
2022/12/13 17:40:57;;;;;;;7.97;4.43;;;-1.30;99.90;;;;;;4956351;28;20188;-61
2022/12/13 17:43:23;;;;;;;8.10;7.33;;;-1.40;99.90;;;;;;4971237;28;20274;-62
2022/12/13 17:46:13;;;;;;;7.53;6.82;;;-1.40;99.90;;;;;;4956328;28;20214;-62
2022/12/13 17:48:39;;;;;;;9.45;6.35;;;-1.40;99.90;;;;;;4942325;29;20185;-62
2022/12/13 17:51:07;;;;;;;23.63;12.83;;;-1.40;99.90;;;;;;4937368;29;20177;-62
2022/12/13 17:53:32;;;;;;;13.60;6.43;;;-1.40;99.90;;;;;;4937400;29;20777;-61
2022/12/13 17:56:00;;;;;;;21.10;7.77;;;-1.40;99.90;;;;;;4955673;28;20283;-61
2022/12/13 17:58:27;;;;;;;13.13;9.20;;;-1.40;99.90;;;;;;4956525;28;20187;-62
2022/12/13 18:00:52;;;;;;;12.45;6.63;;;-1.40;99.90;;;;;;4948837;28;20184;-61
2022/12/13 18:03:18;;;;;;;18.47;6.80;;;-1.40;99.90;;;;;;4937034;29;20257;-62
2022/12/13 18:05:44;;;;;;;12.27;5.80;;;-1.50;99.90;;;;;;4953638;29;20949;-62
2022/12/13 18:08:10;;;;;;;19.27;11.93;;;-1.50;99.90;;;;;;4956451;28;20471;-64
2022/12/13 18:10:36;;;;;;;12.02;8.38;;;-1.50;99.90;;;;;;4956425;28;20711;-62
2022/12/13 18:13:01;;;;;;;4.37;3.93;;;-1.50;99.90;;;;;;4955692;28;20177;-62